Time;durP1;ratioP1;P1;durP2;ratioP2;P2;SDS_P1;SDS_P2;PMS_P1;PMS_P2;Temp;Humidity;BMP_temperature;BMP_pressure;BME280_temperature;BME280_humidity;BME280_pressure;Samples;Min_cycle;Max_cycle;Signal;HPM_P1;HPM_P2
2023/12/18 00:00:50;;;;;;;6.07;1.93;;;5.50;99.90;;;;;;5076298;28;20200;-45
2023/12/18 00:06:07;;;;;;;6.13;2.13;;;5.30;99.90;;;;;;5075936;28;20168;-43
2023/12/18 00:08:33;;;;;;;5.23;2.37;;;5.30;99.90;;;;;;5057774;28;20271;-43
2023/12/18 00:11:00;;;;;;;6.30;2.10;;;5.20;99.90;;;;;;5057737;28;20214;-44
2023/12/18 00:13:29;;;;;;;4.50;2.13;;;5.10;99.90;;;;;;5057277;28;20234;-43
2023/12/18 00:15:55;;;;;;;2.57;1.97;;;5.00;99.90;;;;;;5075409;28;20653;-45
2023/12/18 00:18:21;;;;;;;3.23;1.90;;;5.00;99.90;;;;;;5075313;28;20265;-45
2023/12/18 00:20:46;;;;;;;3.40;1.57;;;4.90;99.90;;;;;;5057445;28;20215;-45
2023/12/18 00:23:24;;;;;;;3.83;1.80;;;4.90;99.90;;;;;;5074950;28;20731;-44
2023/12/18 00:25:50;;;;;;;2.87;1.63;;;4.90;99.90;;;;;;5074984;28;20161;-44
2023/12/18 00:28:22;;;;;;;5.53;1.83;;;4.90;99.90;;;;;;5056908;28;20657;-44
2023/12/18 00:30:48;;;;;;;8.33;2.17;;;4.90;99.90;;;;;;5075095;28;20247;-43
2023/12/18 00:33:15;;;;;;;5.37;1.90;;;4.80;99.90;;;;;;5075191;28;20648;-44
2023/12/18 00:35:40;;;;;;;4.50;1.97;;;4.80;99.90;;;;;;5074355;28;20714;-44
2023/12/18 00:38:09;;;;;;;4.13;2.17;;;4.80;99.90;;;;;;5056936;28;20216;-43
2023/12/18 00:40:36;;;;;;;6.27;1.83;;;4.90;99.90;;;;;;5075524;28;20296;-44
2023/12/18 00:43:02;;;;;;;5.30;2.07;;;4.80;99.90;;;;;;5074500;28;20192;-44
2023/12/18 00:45:28;;;;;;;3.17;2.00;;;4.80;99.90;;;;;;5074724;28;20264;-42
2023/12/18 00:47:53;;;;;;;3.90;1.70;;;4.70;99.90;;;;;;5075036;28;20214;-43
2023/12/18 00:50:19;;;;;;;6.10;1.83;;;4.70;99.90;;;;;;5056832;28;20246;-44
2023/12/18 00:52:49;;;;;;;3.77;2.00;;;4.70;99.90;;;;;;5056579;28;20189;-42
2023/12/18 00:55:17;;;;;;;3.17;1.60;;;4.70;99.90;;;;;;5074270;28;20322;-44
2023/12/18 00:57:44;;;;;;;4.30;1.90;;;4.70;99.90;;;;;;5074280;28;20660;-43
2023/12/18 01:00:12;;;;;;;5.37;1.90;;;4.60;99.90;;;;;;5074099;28;20234;-44
2023/12/18 01:02:41;;;;;;;4.40;1.67;;;4.60;99.90;;;;;;5074379;28;20184;-44
2023/12/18 01:05:09;;;;;;;4.97;1.73;;;4.60;99.90;;;;;;5074091;28;20201;-47
2023/12/18 01:07:35;;;;;;;4.63;2.10;;;4.60;99.90;;;;;;5073908;28;20242;-47
2023/12/18 01:10:02;;;;;;;3.13;1.60;;;4.50;99.90;;;;;;5074167;28;20209;-43
2023/12/18 01:12:29;;;;;;;6.03;2.40;;;4.50;99.90;;;;;;5055943;28;20230;-42
2023/12/18 01:14:55;;;;;;;4.20;1.67;;;4.50;99.90;;;;;;5073943;28;20185;-42
2023/12/18 01:17:20;;;;;;;5.60;2.07;;;4.50;99.90;;;;;;5056572;28;20272;-41
2023/12/18 01:19:46;;;;;;;8.87;2.30;;;4.50;99.90;;;;;;5056342;28;20237;-41
2023/12/18 01:22:14;;;;;;;3.90;1.83;;;4.60;99.90;;;;;;5073816;28;20229;-42
2023/12/18 01:24:40;;;;;;;6.00;2.50;;;4.60;99.90;;;;;;5073987;28;20201;-41
2023/12/18 01:27:06;;;;;;;5.13;2.10;;;4.60;99.90;;;;;;5073717;28;20187;-41
2023/12/18 01:29:31;;;;;;;5.93;1.90;;;4.60;99.90;;;;;;5073648;28;20237;-45
2023/12/18 01:31:57;;;;;;;5.80;2.77;;;4.70;99.90;;;;;;5073680;28;20271;-42
2023/12/18 01:34:24;;;;;;;5.13;2.50;;;4.70;99.90;;;;;;5073697;28;20216;-44
2023/12/18 01:36:50;;;;;;;5.47;2.53;;;4.70;99.90;;;;;;5073961;28;20628;-43
2023/12/18 01:39:16;;;;;;;6.67;2.67;;;4.70;99.90;;;;;;5073512;28;20223;-43
2023/12/18 01:41:43;;;;;;;3.50;2.20;;;4.70;99.90;;;;;;5055569;28;20297;-42
2023/12/18 01:44:12;;;;;;;5.37;2.23;;;4.60;99.90;;;;;;5073491;28;20200;-42
2023/12/18 01:46:41;;;;;;;6.27;2.30;;;4.60;99.90;;;;;;5074223;28;20185;-43
2023/12/18 01:49:08;;;;;;;5.20;2.00;;;4.50;99.90;;;;;;5072685;28;20214;-43
2023/12/18 01:51:35;;;;;;;5.20;2.33;;;4.50;99.90;;;;;;5071585;28;20694;-42
2023/12/18 01:54:01;;;;;;;11.43;3.13;;;4.50;99.90;;;;;;5055673;28;20194;-43
2023/12/18 01:59:50;;;;;;;7.50;2.70;;;4.60;99.90;;;;;;5073299;28;20230;-43
2023/12/18 02:02:16;;;;;;;10.47;2.90;;;4.60;99.90;;;;;;5073840;28;20183;-42
2023/12/18 02:04:43;;;;;;;4.40;2.50;;;4.60;99.90;;;;;;5073004;28;20256;-42
2023/12/18 02:07:10;;;;;;;9.07;2.73;;;4.40;99.90;;;;;;5073411;28;20203;-43
2023/12/18 02:09:36;;;;;;;6.10;2.70;;;4.40;99.90;;;;;;5073543;28;20236;-42
2023/12/18 02:12:05;;;;;;;4.63;2.90;;;4.30;99.90;;;;;;5073425;28;20192;-44
2023/12/18 02:14:34;;;;;;;6.53;2.80;;;4.20;99.90;;;;;;5055591;28;20183;-43
2023/12/18 02:17:00;;;;;;;4.53;2.70;;;4.20;99.90;;;;;;5073221;28;20180;-42
2023/12/18 02:19:28;;;;;;;7.70;2.57;;;4.10;99.90;;;;;;5073119;28;20211;-42
2023/12/18 02:21:55;;;;;;;8.13;2.93;;;4.00;99.90;;;;;;5072874;28;20195;-42
2023/12/18 02:25:05;;;;;;;6.43;2.73;;;4.00;99.90;;;;;;5072947;28;20616;-43
2023/12/18 02:27:33;;;;;;;9.10;2.77;;;3.90;99.90;;;;;;5073633;28;20183;-44
2023/12/18 02:29:59;;;;;;;7.53;2.70;;;3.90;99.90;;;;;;5073877;28;20202;-43
2023/12/18 02:32:26;;;;;;;5.87;2.80;;;3.90;99.90;;;;;;5056086;28;20192;-43
2023/12/18 02:34:52;;;;;;;7.40;3.40;;;3.90;99.90;;;;;;5073693;28;20582;-44
2023/12/18 02:37:23;;;;;;;6.83;3.00;;;3.90;99.90;;;;;;5073018;28;20180;-42
2023/12/18 02:39:50;;;;;;;5.53;2.87;;;3.90;99.90;;;;;;5073379;28;20239;-43
2023/12/18 02:42:15;;;;;;;5.83;3.40;;;3.90;99.90;;;;;;5072960;28;20195;-42
2023/12/18 02:44:45;;;;;;;7.47;3.27;;;3.80;99.90;;;;;;5054917;28;20676;-42
2023/12/18 02:47:11;;;;;;;5.47;3.40;;;3.80;99.90;;;;;;5073113;28;20188;-43
2023/12/18 02:49:42;;;;;;;6.23;3.00;;;3.80;99.90;;;;;;5072822;28;20230;-41
2023/12/18 02:52:08;;;;;;;9.07;3.67;;;3.80;99.90;;;;;;5054645;28;20550;-43
2023/12/18 02:54:34;;;;;;;6.07;3.50;;;3.80;99.90;;;;;;5065820;28;20208;-42
2023/12/18 02:56:59;;;;;;;8.93;3.20;;;3.70;99.90;;;;;;5073232;28;20187;-42
2023/12/18 02:59:27;;;;;;;5.43;2.63;;;3.70;99.90;;;;;;5056326;28;20227;-42
2023/12/18 03:01:52;;;;;;;5.37;2.93;;;3.60;99.90;;;;;;5076499;28;20192;-42
2023/12/18 03:04:19;;;;;;;6.13;3.07;;;3.60;99.90;;;;;;5076621;28;20203;-40
2023/12/18 03:06:46;;;;;;;7.60;3.40;;;3.60;99.90;;;;;;5058878;28;20190;-42
2023/12/18 03:09:12;;;;;;;6.90;3.40;;;3.60;99.90;;;;;;5076292;28;20551;-42
2023/12/18 03:11:42;;;;;;;8.33;3.30;;;3.50;99.90;;;;;;5076241;28;20183;-43
2023/12/18 03:14:10;;;;;;;4.63;3.00;;;3.50;99.90;;;;;;5076187;28;20199;-42
2023/12/18 03:16:39;;;;;;;7.30;3.70;;;3.40;99.90;;;;;;5076135;28;20195;-41
2023/12/18 03:19:04;;;;;;;12.07;3.37;;;3.30;99.90;;;;;;5058110;28;20201;-43
2023/12/18 03:21:30;;;;;;;9.03;3.27;;;3.30;99.90;;;;;;5076247;28;20172;-43
2023/12/18 03:23:58;;;;;;;7.17;3.13;;;3.30;99.90;;;;;;5076111;28;20196;-43
2023/12/18 03:26:24;;;;;;;6.33;3.37;;;3.30;99.90;;;;;;5076257;28;20204;-44
2023/12/18 03:28:50;;;;;;;7.57;3.37;;;3.30;99.90;;;;;;5075984;28;20234;-42
2023/12/18 03:31:18;;;;;;;7.70;3.80;;;3.40;99.90;;;;;;5058207;28;20180;-44
2023/12/18 03:33:55;;;;;;;6.97;3.40;;;3.40;99.90;;;;;;5057982;28;20187;-42
2023/12/18 03:36:21;;;;;;;8.00;3.50;;;3.40;99.90;;;;;;5057987;28;20187;-41
2023/12/18 03:38:50;;;;;;;9.70;4.50;;;3.40;99.90;;;;;;5075925;28;20187;-42
2023/12/18 03:41:16;;;;;;;10.87;4.27;;;3.30;99.90;;;;;;5076043;28;20540;-44
2023/12/18 03:43:45;;;;;;;13.00;4.60;;;3.30;99.90;;;;;;5075720;28;20196;-41
2023/12/18 03:46:10;;;;;;;6.33;4.00;;;3.30;99.90;;;;;;5075692;28;20245;-43
2023/12/18 03:48:36;;;;;;;8.03;3.93;;;3.30;99.90;;;;;;5075911;28;20628;-43
2023/12/18 03:51:02;;;;;;;8.83;4.20;;;3.30;99.90;;;;;;5075608;28;20230;-43
2023/12/18 03:53:29;;;;;;;6.67;4.20;;;3.20;99.90;;;;;;5075781;28;20196;-44
2023/12/18 03:56:47;;;;;;;5.97;4.27;;;3.20;99.90;;;;;;5075504;28;20184;-41
2023/12/18 03:59:19;;;;;;;9.93;4.00;;;3.20;99.90;;;;;;5075419;28;20566;-43
2023/12/18 04:01:45;;;;;;;7.03;4.30;;;3.10;99.90;;;;;;5075335;28;20218;-42
2023/12/18 04:04:12;;;;;;;9.67;4.43;;;3.10;99.90;;;;;;5075381;28;20234;-42
2023/12/18 04:06:42;;;;;;;13.50;4.37;;;3.10;99.90;;;;;;5076087;28;20221;-42
2023/12/18 04:09:09;;;;;;;8.60;4.50;;;3.00;99.90;;;;;;5070444;28;20719;-44
2023/12/18 04:11:34;;;;;;;9.37;4.47;;;3.00;99.90;;;;;;5057023;28;20187;-43
2023/12/18 04:14:06;;;;;;;9.40;4.77;;;3.00;99.90;;;;;;5057214;28;20249;-44
2023/12/18 04:16:35;;;;;;;8.53;4.90;;;3.00;99.90;;;;;;5075378;28;20164;-42
2023/12/18 04:19:00;;;;;;;10.33;5.47;;;3.00;99.90;;;;;;5075221;28;20179;-43
2023/12/18 04:21:29;;;;;;;10.80;5.23;;;2.90;99.90;;;;;;5075254;28;20706;-43
2023/12/18 04:23:59;;;;;;;7.50;4.80;;;2.90;99.90;;;;;;5056993;28;20214;-44
2023/12/18 04:26:28;;;;;;;10.80;5.47;;;2.80;99.90;;;;;;5057052;28;20580;-43
2023/12/18 04:28:54;;;;;;;11.43;5.97;;;2.80;99.90;;;;;;5075239;28;20192;-43
2023/12/18 04:31:20;;;;;;;11.80;6.43;;;2.80;99.90;;;;;;5075111;28;20210;-43
2023/12/18 04:33:46;;;;;;;10.40;6.40;;;2.80;99.90;;;;;;5074846;28;20192;-43
2023/12/18 04:36:14;;;;;;;10.23;5.80;;;2.80;99.90;;;;;;5074995;28;20621;-43
2023/12/18 04:38:43;;;;;;;10.93;6.03;;;2.80;99.90;;;;;;5074834;28;20222;-41
2023/12/18 04:41:19;;;;;;;9.50;6.03;;;2.80;99.90;;;;;;5074586;28;20173;-43
2023/12/18 04:43:48;;;;;;;10.97;6.53;;;2.90;99.90;;;;;;5052639;28;20252;-40
2023/12/18 04:46:21;;;;;;;8.40;5.70;;;2.90;99.90;;;;;;5074455;28;20179;-42
2023/12/18 04:48:52;;;;;;;10.23;6.77;;;2.80;99.90;;;;;;5074605;28;20534;-41
2023/12/18 04:51:22;;;;;;;11.67;6.23;;;2.90;99.90;;;;;;5074366;28;20172;-42
2023/12/18 04:53:53;;;;;;;14.30;6.33;;;2.90;99.90;;;;;;5074646;28;20194;-41
2023/12/18 04:56:19;;;;;;;14.00;6.93;;;3.00;99.90;;;;;;5074614;28;20560;-42
2023/12/18 04:58:51;;;;;;;13.87;6.20;;;3.00;99.90;;;;;;5056370;28;20262;-42
2023/12/18 05:01:17;;;;;;;14.77;6.47;;;3.00;99.90;;;;;;5074531;28;20629;-41
2023/12/18 05:03:43;;;;;;;12.70;6.23;;;3.10;99.90;;;;;;5074088;28;20287;-43
2023/12/18 05:06:28;;;;;;;11.03;6.63;;;3.00;99.90;;;;;;5074109;28;20237;-45
2023/12/18 05:08:55;;;;;;;11.67;6.03;;;3.10;99.90;;;;;;5056807;28;20192;-41
2023/12/18 05:11:30;;;;;;;15.13;7.20;;;3.00;99.90;;;;;;5073709;28;20183;-42
2023/12/18 05:13:57;;;;;;;13.80;6.60;;;3.00;99.90;;;;;;5073798;28;20324;-43
2023/12/18 05:16:23;;;;;;;11.20;6.27;;;2.90;99.90;;;;;;5073918;28;20175;-42
2023/12/18 05:18:49;;;;;;;14.37;6.63;;;2.80;99.90;;;;;;5073859;28;20257;-43
2023/12/18 05:21:17;;;;;;;14.37;6.97;;;2.80;99.90;;;;;;5074170;28;20741;-43
2023/12/18 05:23:47;;;;;;;11.57;6.30;;;2.80;99.90;;;;;;5081951;28;20214;-42
2023/12/18 05:26:13;;;;;;;11.67;6.03;;;2.80;99.90;;;;;;5068680;28;20167;-41
2023/12/18 05:28:38;;;;;;;14.63;6.63;;;2.70;99.90;;;;;;5087313;28;20175;-43
2023/12/18 05:34:01;;;;;;;13.37;6.37;;;2.60;99.90;;;;;;5073761;28;20174;-42
2023/12/18 05:36:33;;;;;;;12.63;6.73;;;2.60;99.90;;;;;;5055909;28;20175;-42
2023/12/18 05:39:00;;;;;;;13.73;6.40;;;2.60;99.90;;;;;;5073964;28;20171;-40
2023/12/18 05:41:26;;;;;;;11.10;6.70;;;2.60;99.90;;;;;;5073641;28;20172;-43
2023/12/18 05:43:51;;;;;;;15.10;6.50;;;2.60;99.90;;;;;;5073542;28;20252;-42
2023/12/18 05:46:17;;;;;;;13.80;7.03;;;2.60;99.90;;;;;;5073779;28;20175;-43
2023/12/18 05:48:44;;;;;;;10.43;7.20;;;2.50;99.90;;;;;;5073471;28;20229;-42
2023/12/18 05:51:19;;;;;;;14.70;6.57;;;2.60;99.90;;;;;;5073394;28;20211;-42
2023/12/18 05:53:45;;;;;;;13.80;6.97;;;2.60;99.90;;;;;;5073682;28;20199;-42
2023/12/18 05:56:11;;;;;;;9.70;6.80;;;2.50;99.90;;;;;;5055646;28;20215;-42
2023/12/18 05:58:37;;;;;;;11.33;6.90;;;2.50;99.90;;;;;;5073336;28;20228;-41
2023/12/18 06:01:06;;;;;;;11.37;7.23;;;2.40;99.90;;;;;;5055294;28;20199;-41
2023/12/18 06:03:49;;;;;;;10.70;7.10;;;2.40;99.90;;;;;;5073514;28;20357;-41
2023/12/18 06:06:16;;;;;;;13.10;6.97;;;2.40;99.90;;;;;;5073613;28;20185;-43
2023/12/18 06:08:42;;;;;;;12.23;7.00;;;2.30;99.90;;;;;;5073532;28;20184;-43
2023/12/18 06:11:08;;;;;;;12.60;7.13;;;2.30;99.90;;;;;;5073349;28;20644;-41
2023/12/18 06:13:39;;;;;;;10.13;6.43;;;2.20;99.90;;;;;;5073188;28;20245;-42
2023/12/18 06:16:10;;;;;;;12.07;6.93;;;2.20;99.90;;;;;;5073253;28;20163;-41
2023/12/18 06:18:40;;;;;;;13.10;6.63;;;2.10;99.90;;;;;;5073270;28;20210;-43
2023/12/18 06:21:06;;;;;;;13.93;6.60;;;2.10;99.90;;;;;;5073269;28;20199;-42
2023/12/18 06:23:33;;;;;;;11.87;7.00;;;2.10;99.90;;;;;;5073557;28;20241;-43
2023/12/18 06:25:59;;;;;;;10.97;7.10;;;2.00;99.90;;;;;;5073881;28;20191;-45
2023/12/18 06:28:28;;;;;;;14.17;6.20;;;2.00;99.90;;;;;;5073460;28;20176;-42
2023/12/18 06:30:54;;;;;;;9.67;6.30;;;2.00;99.90;;;;;;5072995;28;20294;-44
2023/12/18 06:33:21;;;;;;;11.57;6.10;;;2.00;99.90;;;;;;5073367;28;20172;-44
2023/12/18 06:35:53;;;;;;;10.63;6.20;;;2.00;99.90;;;;;;5076853;28;20183;-44
2023/12/18 06:38:21;;;;;;;9.13;6.40;;;1.90;99.90;;;;;;5076901;28;20200;-43
2023/12/18 06:40:48;;;;;;;11.50;7.07;;;1.80;99.90;;;;;;5059567;28;20195;-42
2023/12/18 06:43:14;;;;;;;9.27;6.63;;;1.70;99.90;;;;;;5076949;28;20175;-43
2023/12/18 06:45:40;;;;;;;11.13;7.27;;;1.70;99.90;;;;;;5077114;28;20247;-43
2023/12/18 06:48:05;;;;;;;12.87;6.70;;;1.60;99.90;;;;;;5058989;28;20183;-42
2023/12/18 06:50:31;;;;;;;12.97;6.53;;;1.60;99.90;;;;;;5076615;28;20252;-43
2023/12/18 06:53:02;;;;;;;13.50;6.77;;;1.50;99.90;;;;;;5076968;28;20206;-44
2023/12/18 06:55:35;;;;;;;11.60;6.83;;;1.50;99.90;;;;;;5077009;28;20191;-43
2023/12/18 06:58:03;;;;;;;16.33;6.73;;;1.50;99.90;;;;;;5075956;28;20553;-42
2023/12/18 07:00:32;;;;;;;18.57;6.90;;;1.50;99.90;;;;;;5058857;28;20287;-42
2023/12/18 07:03:20;;;;;;;14.30;7.17;;;1.40;99.90;;;;;;5076717;28;20172;-44
2023/12/18 07:05:46;;;;;;;13.00;7.50;;;1.40;99.90;;;;;;5061535;28;20192;-44
2023/12/18 07:08:21;;;;;;;14.20;8.40;;;1.40;99.90;;;;;;5082230;28;20183;-43
2023/12/18 07:10:49;;;;;;;11.97;7.50;;;1.30;99.90;;;;;;5064025;28;20617;-44
2023/12/18 07:13:15;;;;;;;12.83;7.87;;;1.40;99.90;;;;;;5081384;28;20195;-43
2023/12/18 07:15:41;;;;;;;16.60;7.87;;;1.40;99.90;;;;;;5081703;28;20257;-45
2023/12/18 07:18:12;;;;;;;14.00;7.67;;;1.40;99.90;;;;;;5064754;28;20569;-45
2023/12/18 07:20:39;;;;;;;18.00;8.43;;;1.40;99.90;;;;;;5081051;28;20564;-44
2023/12/18 07:23:07;;;;;;;16.57;8.93;;;1.50;99.90;;;;;;5081026;28;20191;-44
2023/12/18 07:25:34;;;;;;;14.27;8.83;;;1.50;99.90;;;;;;5063177;28;20192;-44
2023/12/18 07:27:59;;;;;;;15.17;10.13;;;1.60;99.90;;;;;;5081446;28;20258;-44
2023/12/18 07:30:28;;;;;;;23.20;11.10;;;1.70;99.90;;;;;;5080891;28;20219;-44
2023/12/18 07:32:56;;;;;;;22.47;13.87;;;1.80;99.90;;;;;;5080933;28;20254;-44
2023/12/18 07:35:23;;;;;;;18.60;11.30;;;1.90;99.90;;;;;;5080864;28;20185;-44
2023/12/18 07:37:53;;;;;;;23.27;14.63;;;2.10;99.90;;;;;;5081572;28;20214;-46
2023/12/18 07:40:21;;;;;;;21.53;13.50;;;2.20;99.90;;;;;;5080992;28;20211;-44
2023/12/18 07:42:49;;;;;;;19.50;12.43;;;2.30;99.90;;;;;;5081158;28;20747;-42
2023/12/18 07:45:15;;;;;;;19.77;11.20;;;2.40;99.90;;;;;;5057667;28;20223;-43
2023/12/18 07:47:43;;;;;;;23.03;15.10;;;2.50;99.90;;;;;;5075402;28;20265;-44
2023/12/18 07:50:12;;;;;;;23.87;15.03;;;2.60;99.90;;;;;;5057824;28;20199;-43
2023/12/18 07:52:38;;;;;;;21.47;13.73;;;2.70;99.90;;;;;;5057933;28;20183;-43
2023/12/18 07:55:04;;;;;;;27.17;15.20;;;2.80;99.90;;;;;;5041073;28;20610;-44
2023/12/18 07:57:30;;;;;;;20.43;14.30;;;2.80;99.90;;;;;;5075361;28;20190;-44
2023/12/18 07:59:59;;;;;;;23.27;14.40;;;2.80;99.90;;;;;;5075503;28;20570;-45
2023/12/18 08:02:24;;;;;;;25.53;14.07;;;2.90;99.90;;;;;;5075661;28;20539;-45
2023/12/18 08:04:51;;;;;;;23.43;13.00;;;2.90;99.90;;;;;;5057664;28;20204;-43
2023/12/18 08:07:16;;;;;;;21.77;11.30;;;2.80;99.90;;;;;;5075730;28;20258;-45
2023/12/18 08:09:42;;;;;;;25.47;14.07;;;2.80;99.90;;;;;;5075402;28;20286;-43
2023/12/18 08:12:08;;;;;;;18.73;11.60;;;2.80;99.90;;;;;;5075569;28;20175;-43
2023/12/18 08:14:34;;;;;;;26.33;13.67;;;2.80;99.90;;;;;;5075408;28;20202;-43
2023/12/18 08:16:59;;;;;;;23.30;12.83;;;2.80;99.90;;;;;;5075167;28;20628;-44
2023/12/18 08:19:26;;;;;;;25.20;15.03;;;2.80;99.90;;;;;;5075251;28;20195;-44
2023/12/18 08:21:51;;;;;;;24.10;13.83;;;2.80;99.90;;;;;;5075448;28;20627;-44
2023/12/18 08:24:20;;;;;;;24.17;14.07;;;2.70;99.90;;;;;;5075224;28;20238;-43
2023/12/18 08:26:48;;;;;;;23.07;14.73;;;2.80;99.90;;;;;;5075402;28;20289;-47
2023/12/18 08:29:17;;;;;;;26.37;15.47;;;2.80;99.90;;;;;;5056936;28;20205;-47
2023/12/18 08:31:45;;;;;;;29.80;16.27;;;2.90;99.90;;;;;;5075093;28;20263;-46
2023/12/18 08:34:11;;;;;;;27.40;14.43;;;2.90;99.90;;;;;;5074757;28;20233;-47
2023/12/18 08:36:41;;;;;;;24.23;15.37;;;3.00;99.90;;;;;;5074800;28;20172;-47
2023/12/18 08:39:08;;;;;;;26.53;16.00;;;3.00;99.90;;;;;;5074701;28;20192;-46
2023/12/18 08:41:35;;;;;;;24.20;14.90;;;3.10;99.90;;;;;;5074928;28;20187;-46
2023/12/18 08:44:05;;;;;;;26.67;15.70;;;3.10;99.90;;;;;;5056468;28;20692;-46
2023/12/18 08:46:31;;;;;;;25.57;15.23;;;3.10;99.90;;;;;;5074491;28;20176;-47
2023/12/18 08:48:56;;;;;;;22.57;14.07;;;3.20;99.90;;;;;;5056530;28;20180;-47
2023/12/18 08:51:22;;;;;;;28.73;14.20;;;3.20;99.90;;;;;;5056780;28;20176;-48
2023/12/18 08:53:51;;;;;;;21.60;14.77;;;3.30;99.90;;;;;;5074520;28;20207;-47
2023/12/18 08:56:17;;;;;;;21.90;12.97;;;3.30;99.90;;;;;;5074356;28;20172;-47
2023/12/18 08:58:52;;;;;;;21.57;12.47;;;3.30;99.90;;;;;;5073999;28;20179;-49
2023/12/18 09:01:20;;;;;;;26.73;13.87;;;3.30;99.90;;;;;;5074519;28;20226;-46
2023/12/18 09:03:45;;;;;;;21.13;12.07;;;3.40;99.90;;;;;;5056212;28;20594;-47
2023/12/18 09:06:11;;;;;;;23.60;12.67;;;3.40;99.90;;;;;;5074441;28;20178;-47
2023/12/18 09:08:41;;;;;;;19.47;10.90;;;3.50;99.90;;;;;;5074155;28;20569;-47
2023/12/18 09:11:22;;;;;;;19.87;9.40;;;3.50;99.90;;;;;;5074328;28;20198;-48
2023/12/18 09:13:47;;;;;;;20.73;13.47;;;3.60;99.90;;;;;;5073866;28;20607;-48
2023/12/18 09:16:14;;;;;;;21.73;12.67;;;3.60;99.90;;;;;;5056340;28;20266;-47
2023/12/18 09:18:40;;;;;;;18.97;11.30;;;3.60;99.90;;;;;;5056066;28;20682;-47
2023/12/18 09:21:09;;;;;;;15.30;9.10;;;3.60;99.90;;;;;;5073836;28;20192;-48
2023/12/18 09:23:41;;;;;;;21.87;10.27;;;3.60;99.90;;;;;;5073689;28;20203;-47
2023/12/18 09:26:07;;;;;;;19.00;10.67;;;3.70;99.90;;;;;;5056137;28;20184;-46
2023/12/18 09:28:32;;;;;;;16.43;8.87;;;3.70;99.90;;;;;;5073709;28;20187;-48
2023/12/18 09:31:26;;;;;;;15.33;8.73;;;3.70;99.90;;;;;;5073688;28;20196;-47
2023/12/18 09:33:53;;;;;;;20.57;10.10;;;3.80;99.90;;;;;;5073757;28;20513;-47
2023/12/18 09:36:22;;;;;;;14.57;8.23;;;3.80;99.90;;;;;;5056088;28;20195;-45
2023/12/18 09:38:50;;;;;;;13.30;7.83;;;3.80;99.90;;;;;;5055825;28;20642;-47
2023/12/18 09:41:31;;;;;;;15.90;8.47;;;3.90;99.90;;;;;;5073885;28;20258;-48
2023/12/18 09:43:58;;;;;;;16.00;9.43;;;3.90;99.90;;;;;;5073804;28;20282;-48
2023/12/18 09:46:30;;;;;;;14.93;8.87;;;4.00;99.90;;;;;;5055814;28;20235;-49
2023/12/18 09:48:56;;;;;;;15.87;8.43;;;4.00;99.90;;;;;;5073943;28;20203;-48
2023/12/18 09:51:27;;;;;;;16.87;8.70;;;4.00;99.90;;;;;;5073662;28;20246;-48
2023/12/18 09:53:53;;;;;;;12.93;7.60;;;4.00;99.90;;;;;;5073917;28;20648;-47
2023/12/18 09:56:21;;;;;;;11.80;6.47;;;4.00;99.90;;;;;;5055507;28;20651;-48
2023/12/18 09:58:47;;;;;;;15.43;7.57;;;4.10;99.90;;;;;;5073360;28;20602;-49
2023/12/18 10:01:16;;;;;;;13.20;7.73;;;4.10;99.90;;;;;;5055403;28;20216;-48
2023/12/18 10:03:43;;;;;;;8.53;5.07;;;4.20;99.90;;;;;;5055272;28;20214;-47
2023/12/18 10:06:15;;;;;;;12.33;6.40;;;4.20;99.90;;;;;;5071148;28;20183;-48
2023/12/18 10:08:41;;;;;;;12.10;6.60;;;4.20;99.90;;;;;;5072229;28;20546;-48
2023/12/18 10:11:23;;;;;;;10.13;5.47;;;4.30;99.90;;;;;;5055339;28;20214;-48
2023/12/18 10:13:53;;;;;;;5.30;3.57;;;4.30;99.90;;;;;;5038669;28;20185;-48
2023/12/18 10:16:20;;;;;;;11.63;7.13;;;4.30;99.90;;;;;;5073918;28;20183;-48
2023/12/18 10:18:46;;;;;;;10.33;6.73;;;4.40;99.90;;;;;;5073432;28;20326;-48
2023/12/18 10:21:12;;;;;;;11.57;6.80;;;4.40;99.90;;;;;;5073388;28;20677;-49
2023/12/18 10:23:39;;;;;;;13.90;6.90;;;4.40;99.90;;;;;;5073310;28;20199;-48
2023/12/18 10:26:07;;;;;;;14.40;6.83;;;4.50;99.90;;;;;;5073366;28;20230;-49
2023/12/18 10:28:34;;;;;;;13.00;7.50;;;4.50;99.90;;;;;;5055427;28;20212;-48
2023/12/18 10:30:59;;;;;;;17.20;8.60;;;4.60;99.90;;;;;;5055093;28;20218;-48
2023/12/18 10:33:25;;;;;;;14.77;8.70;;;4.60;99.90;;;;;;5055605;28;20548;-47
2023/12/18 10:35:53;;;;;;;11.30;6.57;;;4.60;99.90;;;;;;5073157;28;20169;-48
2023/12/18 10:38:23;;;;;;;16.97;8.97;;;4.60;99.90;;;;;;5055198;28;20261;-47
2023/12/18 10:40:55;;;;;;;16.00;9.30;;;4.60;99.90;;;;;;5073168;28;20193;-48
2023/12/18 10:43:25;;;;;;;13.67;7.87;;;4.60;99.90;;;;;;5070131;28;20183;-47
2023/12/18 10:45:53;;;;;;;14.70;9.07;;;4.70;99.90;;;;;;5072958;28;20265;-47
2023/12/18 10:48:22;;;;;;;15.67;7.77;;;4.70;99.90;;;;;;5055520;28;20169;-48
2023/12/18 10:50:51;;;;;;;14.00;8.27;;;4.70;99.90;;;;;;5073092;28;20227;-46
2023/12/18 10:53:20;;;;;;;10.63;6.57;;;4.80;99.90;;;;;;5038731;28;20214;-47
2023/12/18 10:55:50;;;;;;;15.83;8.70;;;4.80;99.90;;;;;;5055830;28;20191;-47
2023/12/18 10:58:20;;;;;;;13.87;7.93;;;4.80;99.90;;;;;;5072760;28;20186;-47
2023/12/18 11:04:09;;;;;;;16.93;8.90;;;4.90;99.90;;;;;;5072784;28;20229;-49
2023/12/18 11:06:35;;;;;;;13.97;7.50;;;4.90;99.90;;;;;;5055015;28;20189;-47
2023/12/18 11:09:03;;;;;;;16.57;8.47;;;4.90;99.90;;;;;;5072512;28;20196;-47
2023/12/18 11:11:31;;;;;;;15.40;8.17;;;4.90;99.90;;;;;;5072730;28;20557;-48
2023/12/18 11:14:12;;;;;;;13.33;8.63;;;4.90;99.90;;;;;;5038556;28;20186;-47
2023/12/18 11:16:54;;;;;;;11.50;6.37;;;4.90;99.90;;;;;;5073217;28;20202;-48
2023/12/18 11:19:45;;;;;;;10.97;6.63;;;4.90;99.90;;;;;;5073062;28;20201;-48
2023/12/18 11:22:17;;;;;;;9.63;5.63;;;4.90;99.90;;;;;;5076146;28;20302;-47
2023/12/18 11:24:46;;;;;;;12.13;7.87;;;4.90;99.90;;;;;;5058033;28;20301;-46
2023/12/18 11:27:12;;;;;;;11.57;7.43;;;4.90;99.90;;;;;;5058690;28;20168;-43
2023/12/18 11:29:45;;;;;;;12.70;7.40;;;4.90;99.90;;;;;;5074890;28;20205;-43
2023/12/18 11:32:12;;;;;;;14.13;7.60;;;4.90;99.90;;;;;;5076585;28;20239;-45
2023/12/18 11:34:50;;;;;;;11.43;7.53;;;5.00;99.90;;;;;;5076205;28;20234;-43
2023/12/18 11:37:16;;;;;;;12.20;6.53;;;5.00;99.90;;;;;;5076300;28;20197;-42
2023/12/18 11:39:46;;;;;;;12.67;8.30;;;5.00;99.90;;;;;;5058293;28;20222;-43
2023/12/18 11:42:12;;;;;;;16.97;8.43;;;5.00;99.90;;;;;;5058180;28;20196;-42
2023/12/18 11:44:38;;;;;;;14.70;9.53;;;5.00;99.90;;;;;;5075959;28;20563;-45
2023/12/18 11:47:10;;;;;;;14.30;8.70;;;5.00;99.90;;;;;;5058132;28;20185;-43
2023/12/18 11:49:42;;;;;;;15.07;8.80;;;5.00;99.90;;;;;;5075616;28;20201;-44
2023/12/18 11:52:20;;;;;;;16.83;8.60;;;5.00;99.90;;;;;;5076199;28;20177;-41
2023/12/18 11:54:48;;;;;;;16.17;9.10;;;5.00;99.90;;;;;;5059756;28;20186;-45
2023/12/18 11:57:16;;;;;;;14.87;8.47;;;5.00;99.90;;;;;;5062475;28;20197;-43
2023/12/18 11:59:45;;;;;;;11.60;7.47;;;5.10;99.90;;;;;;5042902;28;20206;-43
2023/12/18 12:02:12;;;;;;;14.17;8.50;;;5.10;99.90;;;;;;5080195;28;20655;-43
2023/12/18 12:04:41;;;;;;;13.23;9.20;;;5.10;99.90;;;;;;5059518;28;20215;-45
2023/12/18 12:07:07;;;;;;;13.27;7.60;;;5.10;99.90;;;;;;5075567;28;20193;-42
2023/12/18 12:10:03;;;;;;;14.77;7.57;;;5.10;99.90;;;;;;5057930;28;20206;-44
2023/12/18 12:12:28;;;;;;;15.10;8.03;;;5.10;99.90;;;;;;5075529;28;20171;-44
2023/12/18 12:14:59;;;;;;;11.70;6.97;;;5.10;99.90;;;;;;5072234;28;20197;-43
2023/12/18 12:17:26;;;;;;;12.87;7.47;;;5.20;99.90;;;;;;5075856;28;20162;-44
2023/12/18 12:19:51;;;;;;;12.27;7.27;;;5.20;99.90;;;;;;5075085;28;20736;-43
2023/12/18 12:22:17;;;;;;;11.90;7.30;;;5.20;99.90;;;;;;5057583;28;20190;-42
2023/12/18 12:24:52;;;;;;;11.57;7.43;;;5.30;99.90;;;;;;5057512;28;20287;-43
2023/12/18 12:27:22;;;;;;;11.53;7.43;;;5.30;99.90;;;;;;5075199;28;20257;-44
2023/12/18 12:29:50;;;;;;;9.70;6.47;;;5.30;99.90;;;;;;5075162;28;20202;-45
2023/12/18 12:32:16;;;;;;;8.27;6.03;;;5.30;99.90;;;;;;5056963;28;20243;-43
2023/12/18 12:34:42;;;;;;;10.97;7.10;;;5.30;99.90;;;;;;5075136;28;20170;-43
2023/12/18 12:37:09;;;;;;;12.50;6.97;;;5.30;99.90;;;;;;5074708;28;20182;-43
2023/12/18 12:39:37;;;;;;;10.90;7.13;;;5.30;99.90;;;;;;5074069;28;20210;-44
2023/12/18 12:42:04;;;;;;;14.13;6.60;;;5.30;99.90;;;;;;5074959;28;20255;-45
2023/12/18 12:44:36;;;;;;;11.53;6.53;;;5.40;99.90;;;;;;5074434;28;20212;-42
2023/12/18 12:47:01;;;;;;;11.23;6.70;;;5.30;99.90;;;;;;5074874;28;20642;-44
2023/12/18 12:49:27;;;;;;;10.03;6.50;;;5.30;99.90;;;;;;5070258;28;20213;-43
2023/12/18 12:51:54;;;;;;;7.60;4.37;;;5.40;99.90;;;;;;5077837;28;20694;-42
2023/12/18 12:54:24;;;;;;;10.40;6.43;;;5.40;99.90;;;;;;5057009;28;20197;-44
2023/12/18 12:56:50;;;;;;;10.27;6.43;;;5.40;99.90;;;;;;5040294;28;20187;-43
2023/12/18 12:59:15;;;;;;;11.03;6.23;;;5.40;99.90;;;;;;5039851;28;20265;-44
2023/12/18 13:01:41;;;;;;;8.97;6.17;;;5.40;99.90;;;;;;5056571;28;20190;-43
2023/12/18 13:04:14;;;;;;;10.07;6.20;;;5.40;99.90;;;;;;5074296;28;20301;-43
2023/12/18 13:06:39;;;;;;;9.90;6.70;;;5.40;99.90;;;;;;5056631;28;20186;-43